Time;durP1;ratioP1;P1;durP2;ratioP2;P2;SDS_P1;SDS_P2;PMS_P1;PMS_P2;Temp;Humidity;BMP_temperature;BMP_pressure;BME280_temperature;BME280_humidity;BME280_pressure;Samples;Min_cycle;Max_cycle;Signal;HPM_P1;HPM_P2
2023/09/02 00:00:59;;;;;;;13.70;7.93;;;13.40;99.90;;;;;;5055347;28;19912;-61
2023/09/02 00:03:24;;;;;;;;;;;13.40;99.90;;;;;;5058448;28;20063;-61
2023/09/02 00:05:50;;;;;;;13.25;7.78;;;13.40;99.90;;;;;;5059823;28;20003;-62
2023/09/02 00:08:15;;;;;;;;;;;13.40;99.90;;;;;;5059019;28;20049;-62
2023/09/02 00:10:41;;;;;;;17.38;7.88;;;13.30;99.90;;;;;;5050113;28;19935;-63
2023/09/02 00:13:07;;;;;;;;;;;13.30;99.90;;;;;;5056977;28;20044;-63
2023/09/02 00:15:32;;;;;;;16.20;8.63;;;13.20;99.90;;;;;;5054310;28;19938;-63
2023/09/02 00:17:58;;;;;;;;;;;13.20;99.90;;;;;;5044371;28;20704;-61
2023/09/02 00:20:24;;;;;;;14.50;9.45;;;13.20;99.90;;;;;;5040580;28;20562;-61
2023/09/02 00:22:49;;;;;;;;;;;13.10;99.90;;;;;;5046407;28;20021;-61
2023/09/02 00:25:15;;;;;;;16.80;7.85;;;13.20;99.90;;;;;;5035585;28;20340;-62
2023/09/02 00:27:40;;;;;;;18.20;8.20;;;13.30;99.90;;;;;;5045883;28;20047;-61
2023/09/02 00:30:06;;;;;;;;;;;13.20;99.90;;;;;;5046433;28;20504;-63
2023/09/02 00:32:33;;;;;;;13.68;8.27;;;13.20;99.90;;;;;;5044557;28;19924;-62
2023/09/02 00:34:59;;;;;;;13.82;8.38;;;13.20;99.90;;;;;;5038461;28;20080;-62
2023/09/02 00:37:24;;;;;;;;;;;13.20;99.90;;;;;;5044028;28;20714;-61
2023/09/02 00:39:50;;;;;;;15.52;7.82;;;13.30;99.90;;;;;;5039150;28;19917;-61
2023/09/02 00:42:16;;;;;;;;;;;13.30;99.90;;;;;;5042957;28;20439;-61
2023/09/02 00:44:42;;;;;;;10.48;6.68;;;13.20;99.90;;;;;;5045789;28;19917;-62
2023/09/02 00:47:08;;;;;;;;;;;13.30;99.90;;;;;;5045937;28;20041;-62
2023/09/02 00:49:33;;;;;;;10.85;6.97;;;13.20;99.90;;;;;;5043149;28;19916;-62
2023/09/02 00:51:59;;;;;;;11.00;7.60;;;13.20;99.90;;;;;;5045002;28;20521;-62
2023/09/02 00:54:25;;;;;;;13.30;7.88;;;13.20;99.90;;;;;;5043181;28;20092;-62
2023/09/02 00:56:50;;;;;;;;;;;13.10;99.90;;;;;;5038921;28;20074;-62
2023/09/02 00:59:16;;;;;;;14.60;7.68;;;12.90;99.90;;;;;;5043012;28;20343;-61
2023/09/02 01:01:43;;;;;;;;;;;12.90;99.90;;;;;;5044780;28;20036;-61
2023/09/02 01:04:09;;;;;;;10.93;7.13;;;12.90;99.90;;;;;;5044754;28;19956;-61
2023/09/02 01:06:35;;;;;;;;;;;12.80;99.90;;;;;;5045703;28;20084;-62
2023/09/02 01:09:03;;;;;;;12.10;6.43;;;12.80;99.90;;;;;;5045241;28;19917;-62
2023/09/02 01:11:30;;;;;;;10.18;6.10;;;12.90;99.90;;;;;;5036591;28;20517;-61
2023/09/02 01:13:55;;;;;;;12.02;6.30;;;12.90;99.90;;;;;;5041606;28;20033;-61
2023/09/02 01:16:21;;;;;;;;;;;12.80;99.90;;;;;;5036723;28;20725;-62
2023/09/02 01:18:47;;;;;;;12.38;5.75;;;12.70;99.90;;;;;;5045216;28;19978;-61
2023/09/02 01:21:19;;;;;;;;;;;12.60;99.90;;;;;;5038052;28;20094;-61
2023/09/02 01:24:22;;;;;;;10.70;6.30;;;12.60;99.90;;;;;;5040419;28;20456;-63
2023/09/02 01:27:02;;;;;;;11.07;6.15;;;12.70;99.90;;;;;;5049428;28;20040;-63
2023/09/02 01:29:31;;;;;;;10.93;5.88;;;12.60;99.90;;;;;;5042894;28;20533;-62
2023/09/02 01:31:58;;;;;;;11.55;5.50;;;12.60;99.90;;;;;;5062092;28;20144;-63
2023/09/02 01:34:28;;;;;;;8.48;5.43;;;12.60;99.90;;;;;;5064269;28;20767;-63
2023/09/02 01:36:54;;;;;;;11.48;5.47;;;12.50;99.90;;;;;;5065042;28;20106;-61
2023/09/02 01:39:22;;;;;;;10.27;5.78;;;12.50;99.90;;;;;;5072839;28;20039;-63
2023/09/02 01:41:50;;;;;;;15.63;5.90;;;12.50;99.90;;;;;;5064209;28;20033;-63
2023/09/02 01:44:17;;;;;;;9.82;6.50;;;12.60;99.90;;;;;;5063790;28;20033;-63
2023/09/02 01:46:44;;;;;;;11.30;6.40;;;12.60;99.90;;;;;;5065387;28;20036;-61
2023/09/02 01:49:10;;;;;;;13.20;6.50;;;12.60;99.90;;;;;;5065375;28;20484;-60
2023/09/02 01:51:37;;;;;;;10.23;7.22;;;12.60;99.90;;;;;;5068469;28;20040;-60
2023/09/02 01:54:02;;;;;;;9.63;6.15;;;12.60;99.90;;;;;;5070779;28;20059;-61
2023/09/02 01:56:29;;;;;;;;;;;12.60;99.90;;;;;;5071048;28;20084;-61
2023/09/02 01:58:54;;;;;;;8.93;5.90;;;12.60;99.90;;;;;;5070110;28;19963;-61
2023/09/02 02:01:20;;;;;;;;;;;12.60;99.90;;;;;;5072397;28;20060;-61
2023/09/02 02:03:58;;;;;;;14.13;5.28;;;12.60;99.90;;;;;;5054063;28;19924;-61
2023/09/02 02:06:24;;;;;;;7.32;5.70;;;12.60;99.90;;;;;;5070421;28;20101;-61
2023/09/02 02:09:08;;;;;;;10.88;6.90;;;12.60;99.90;;;;;;5076876;28;20036;-61
2023/09/02 02:11:36;;;;;;;9.82;6.65;;;12.60;99.90;;;;;;5075521;28;20040;-63
2023/09/02 02:14:03;;;;;;;8.82;4.97;;;12.50;99.90;;;;;;5069680;28;20064;-62
2023/09/02 02:16:29;;;;;;;9.75;6.72;;;12.50;99.90;;;;;;5072624;28;20075;-62
2023/09/02 02:18:56;;;;;;;10.15;6.25;;;12.50;99.90;;;;;;5063111;28;20062;-62
2023/09/02 02:21:22;;;;;;;9.57;5.38;;;12.40;99.90;;;;;;5070867;28;20044;-62
2023/09/02 02:23:48;;;;;;;8.88;5.55;;;12.40;99.90;;;;;;5066794;28;20040;-62
2023/09/02 02:26:15;;;;;;;;;;;12.40;99.90;;;;;;5069413;28;20047;-62
2023/09/02 02:28:41;;;;;;;;;;;12.30;99.90;;;;;;5075036;28;19951;-61
2023/09/02 02:31:07;;;;;;;10.75;4.88;;;12.30;99.90;;;;;;5065141;28;19959;-61
2023/09/02 02:33:32;;;;;;;;;;;12.20;99.90;;;;;;5064654;28;20036;-61
2023/09/02 02:35:58;;;;;;;13.68;4.43;;;12.20;99.90;;;;;;5072818;28;20003;-61
2023/09/02 02:38:23;;;;;;;;;;;12.20;99.90;;;;;;5088543;28;20044;-61
2023/09/02 02:40:49;;;;;;;7.53;4.43;;;12.20;99.90;;;;;;5059182;28;20313;-61
2023/09/02 02:43:15;;;;;;;;;;;12.10;99.90;;;;;;5064761;28;20044;-62
2023/09/02 02:45:41;;;;;;;5.18;3.67;;;12.10;99.90;;;;;;5059365;28;19926;-61
2023/09/02 02:48:14;;;;;;;11.43;4.20;;;12.10;99.90;;;;;;5068974;28;20040;-60
2023/09/02 02:50:40;;;;;;;8.63;4.68;;;12.10;99.90;;;;;;5078523;28;20063;-61
2023/09/02 02:53:07;;;;;;;;;;;12.10;99.90;;;;;;5076864;28;20040;-60
2023/09/02 02:55:33;;;;;;;17.73;5.00;;;12.10;99.90;;;;;;5074582;28;19920;-62
2023/09/02 02:57:58;;;;;;;;;;;12.10;99.90;;;;;;5063097;28;20048;-62
2023/09/02 03:00:24;;;;;;;5.25;4.00;;;12.10;99.90;;;;;;5063585;28;19920;-62
2023/09/02 03:02:53;;;;;;;9.70;4.55;;;12.00;99.90;;;;;;5062778;28;20515;-62
2023/09/02 03:05:20;;;;;;;8.63;4.47;;;12.00;99.90;;;;;;5063460;28;20404;-62
2023/09/02 03:07:47;;;;;;;10.25;4.38;;;12.00;99.90;;;;;;5062736;28;21391;-63
2023/09/02 03:10:13;;;;;;;7.50;4.53;;;12.00;99.90;;;;;;5063765;28;20046;-63
2023/09/02 03:12:38;;;;;;;;;;;12.00;99.90;;;;;;5063922;28;20119;-62
2023/09/02 03:15:05;;;;;;;9.68;4.45;;;12.00;99.90;;;;;;5063773;28;20439;-63
2023/09/02 03:17:32;;;;;;;5.60;4.10;;;11.90;99.90;;;;;;5069656;28;20047;-64
2023/09/02 03:19:59;;;;;;;5.85;3.67;;;11.90;99.90;;;;;;5060347;28;20067;-63
2023/09/02 03:22:24;;;;;;;7.13;3.88;;;11.80;99.90;;;;;;5061724;28;20052;-63
2023/09/02 03:24:53;;;;;;;;;;;12.00;99.90;;;;;;5060818;28;20057;-62
2023/09/02 03:27:19;;;;;;;5.53;3.55;;;12.00;99.90;;;;;;5058287;28;19921;-61
2023/09/02 03:29:47;;;;;;;;;;;12.00;99.90;;;;;;5063417;28;20199;-62
2023/09/02 03:32:13;;;;;;;5.40;3.28;;;12.00;99.90;;;;;;5062053;28;19965;-61
2023/09/02 03:34:38;;;;;;;;;;;12.00;99.90;;;;;;5059417;28;20459;-62
2023/09/02 03:37:04;;;;;;;6.00;3.80;;;11.90;99.90;;;;;;5058291;28;20343;-63
2023/09/02 03:39:31;;;;;;;;;;;11.90;99.90;;;;;;5060350;28;20086;-62
2023/09/02 03:41:56;;;;;;;8.48;4.07;;;11.80;99.90;;;;;;5062266;28;19916;-63
2023/09/02 03:44:22;;;;;;;;;;;11.80;99.90;;;;;;5060466;28;20408;-65
2023/09/02 03:46:47;;;;;;;8.45;3.50;;;11.80;99.90;;;;;;5062433;28;19964;-63
2023/09/02 03:49:13;;;;;;;;;;;11.80;99.90;;;;;;5063737;28;20032;-63
2023/09/02 03:51:38;;;;;;;6.20;3.10;;;11.80;99.90;;;;;;5061421;28;19920;-62
2023/09/02 03:54:04;;;;;;;;;;;11.80;99.90;;;;;;5065312;28;20515;-62
2023/09/02 03:56:30;;;;;;;9.10;3.60;;;11.80;99.90;;;;;;5063922;28;19971;-62
2023/09/02 03:58:55;;;;;;;5.43;3.78;;;11.80;99.90;;;;;;5066226;28;20048;-61
2023/09/02 04:01:21;;;;;;;5.65;3.83;;;11.80;99.90;;;;;;5059488;28;20055;-62
2023/09/02 04:03:47;;;;;;;;;;;11.80;99.90;;;;;;5064993;28;20040;-62
2023/09/02 04:06:12;;;;;;;52.75;4.78;;;11.80;99.90;;;;;;5067031;28;19948;-62
2023/09/02 04:08:38;;;;;;;7.60;3.28;;;11.80;99.90;;;;;;5065769;28;20530;-61
2023/09/02 04:11:03;;;;;;;;;;;11.80;99.90;;;;;;5065511;28;20880;-62
2023/09/02 04:13:30;;;;;;;6.00;3.10;;;11.70;99.90;;;;;;5065866;28;19920;-62
2023/09/02 04:16:00;;;;;;;6.28;3.17;;;11.70;99.90;;;;;;5066101;28;20110;-61
2023/09/02 04:18:26;;;;;;;4.97;3.40;;;11.70;99.90;;;;;;5066650;28;20087;-61
2023/09/02 04:20:52;;;;;;;;;;;11.70;99.90;;;;;;5057204;28;20661;-62
2023/09/02 04:23:21;;;;;;;6.65;3.13;;;11.60;99.90;;;;;;5066391;28;19955;-60
2023/09/02 04:25:50;;;;;;;8.98;3.47;;;11.60;99.90;;;;;;5065702;28;20079;-61
2023/09/02 04:28:16;;;;;;;3.85;3.28;;;11.70;99.90;;;;;;5066130;28;20122;-61
2023/09/02 04:30:42;;;;;;;;;;;11.70;99.90;;;;;;5064761;28;20036;-61
2023/09/02 04:33:08;;;;;;;7.00;3.33;;;11.60;99.90;;;;;;5066466;28;20007;-61
2023/09/02 04:35:38;;;;;;;6.57;3.03;;;11.70;99.90;;;;;;5064962;28;20070;-61
2023/09/02 04:38:05;;;;;;;6.55;3.15;;;11.70;99.90;;;;;;5065236;28;20040;-61
2023/09/02 04:40:38;;;;;;;7.90;2.95;;;11.70;99.90;;;;;;5066150;28;20450;-60
2023/09/02 04:43:05;;;;;;;6.22;2.70;;;11.70;99.90;;;;;;5065394;28;20489;-61
2023/09/02 04:45:34;;;;;;;60.08;3.83;;;11.70;99.90;;;;;;5063306;28;20139;-61
2023/09/02 04:48:01;;;;;;;4.55;2.60;;;11.70;99.90;;;;;;5063295;28;20037;-61
2023/09/02 04:50:27;;;;;;;3.47;2.00;;;11.70;99.90;;;;;;5051009;28;20041;-62
2023/09/02 04:52:53;;;;;;;;;;;11.70;99.90;;;;;;5062815;28;20029;-62
2023/09/02 04:55:19;;;;;;;6.18;2.80;;;11.70;99.90;;;;;;5065150;28;19935;-60
2023/09/02 04:57:46;;;;;;;11.65;2.47;;;11.70;99.90;;;;;;5064776;28;20079;-62
2023/09/02 05:00:13;;;;;;;3.17;2.10;;;11.70;99.90;;;;;;5065369;28;20814;-62
2023/09/02 05:02:41;;;;;;;6.60;2.33;;;11.70;99.90;;;;;;5064444;28;20086;-62
2023/09/02 05:05:07;;;;;;;3.50;2.55;;;11.70;99.90;;;;;;5064954;28;20068;-60
2023/09/02 05:07:33;;;;;;;;;;;11.70;99.90;;;;;;5065464;28;20075;-64
2023/09/02 05:09:58;;;;;;;4.88;2.50;;;11.70;99.90;;;;;;5064388;28;20605;-62
2023/09/02 05:12:24;;;;;;;;;;;11.70;99.90;;;;;;5065134;28;20144;-62
2023/09/02 05:14:49;;;;;;;5.43;2.67;;;11.80;99.90;;;;;;5073336;28;20042;-62
2023/09/02 05:17:15;;;;;;;;;;;11.90;99.90;;;;;;5065719;28;20048;-62
2023/09/02 05:19:40;;;;;;;3.13;2.20;;;12.10;99.90;;;;;;5061455;28;19927;-66
2023/09/02 05:22:06;;;;;;;5.93;2.30;;;12.30;99.90;;;;;;5061936;28;20040;-66
2023/09/02 05:24:32;;;;;;;;;;;12.40;99.90;;;;;;5060343;28;20025;-66
2023/09/02 05:26:57;;;;;;;2.45;1.63;;;12.50;99.90;;;;;;5062890;28;19968;-64
2023/09/02 05:29:23;;;;;;;;;;;12.60;99.90;;;;;;5065542;28;20079;-62
2023/09/02 05:31:48;;;;;;;8.73;2.30;;;13.00;99.90;;;;;;5055626;28;19934;-63
2023/09/02 05:34:14;;;;;;;;;;;13.60;99.90;;;;;;5062354;28;20413;-65
2023/09/02 05:36:40;;;;;;;4.95;1.90;;;13.90;99.90;;;;;;5057628;28;20494;-65
2023/09/02 05:39:06;;;;;;;4.82;1.80;;;14.00;99.90;;;;;;5062674;28;20033;-66
2023/09/02 05:41:31;;;;;;;;;;;14.20;99.90;;;;;;5057411;28;20036;-63
2023/09/02 05:43:57;;;;;;;1.67;1.50;;;14.50;99.90;;;;;;5063012;28;20554;-62
2023/09/02 05:46:22;;;;;;;;;;;14.70;99.90;;;;;;5058625;28;20577;-64
2023/09/02 05:48:48;;;;;;;3.00;1.75;;;14.50;99.90;;;;;;5062509;28;19927;-63
2023/09/02 05:51:14;;;;;;;;;;;14.30;99.90;;;;;;5063426;28;20036;-62
2023/09/02 05:53:39;;;;;;;4.07;1.90;;;14.30;99.90;;;;;;5062063;28;19924;-63
2023/09/02 05:56:05;;;;;;;;;;;14.40;99.90;;;;;;5061004;28;20531;-63
2023/09/02 05:58:30;;;;;;;3.40;1.90;;;14.20;99.90;;;;;;5063876;28;19931;-64
2023/09/02 06:00:59;;;;;;;;;;;14.20;99.90;;;;;;5060974;28;20498;-62
2023/09/02 06:03:24;;;;;;;3.67;2.20;;;14.00;99.90;;;;;;5063685;28;19920;-61
2023/09/02 06:05:50;;;;;;;;;;;14.20;99.90;;;;;;5064043;28;20054;-61
2023/09/02 06:08:17;;;;;;;1.80;1.50;;;14.20;99.90;;;;;;5063550;28;19946;-63
2023/09/02 06:10:43;;;;;;;4.63;1.67;;;14.50;99.90;;;;;;5063691;28;20083;-63
2023/09/02 06:13:08;;;;;;;;;;;14.60;99.90;;;;;;5063475;28;20123;-62
2023/09/02 06:15:34;;;;;;;8.32;2.45;;;14.70;99.90;;;;;;5060582;28;19912;-63
2023/09/02 06:18:00;;;;;;;6.28;1.77;;;15.10;99.90;;;;;;5072592;28;20455;-63
2023/09/02 06:20:27;;;;;;;;;;;15.50;99.90;;;;;;5064694;28;20235;-63
2023/09/02 06:22:52;;;;;;;2.85;1.70;;;15.50;99.90;;;;;;5065701;28;19920;-62
2023/09/02 06:25:18;;;;;;;;;;;15.40;99.90;;;;;;5064011;28;20040;-61
2023/09/02 06:27:44;;;;;;;3.88;1.50;;;15.40;99.90;;;;;;5069418;28;19924;-61
2023/09/02 06:30:09;;;;;;;;;;;15.40;99.90;;;;;;5066658;28;20044;-63
2023/09/02 06:32:35;;;;;;;3.13;1.90;;;15.30;99.90;;;;;;5064145;28;19946;-63
2023/09/02 06:35:01;;;;;;;;;;;15.20;99.90;;;;;;5065080;28;20024;-62
2023/09/02 06:37:28;;;;;;;2.63;1.58;;;15.10;99.90;;;;;;5068869;28;19920;-61
2023/09/02 06:39:54;;;;;;;2.40;1.42;;;15.00;99.90;;;;;;5057192;28;20098;-62
2023/09/02 06:42:20;;;;;;;;;;;15.10;99.90;;;;;;5067526;28;20036;-62
2023/09/02 06:44:47;;;;;;;3.10;1.45;;;15.10;99.90;;;;;;5078119;28;19919;-61
2023/09/02 06:47:15;;;;;;;3.08;1.60;;;15.10;99.90;;;;;;5065437;28;20044;-65
2023/09/02 06:49:41;;;;;;;4.28;1.50;;;15.20;99.90;;;;;;5070769;28;20552;-64
2023/09/02 06:52:06;;;;;;;;;;;15.20;99.90;;;;;;5062624;28;20135;-60
2023/09/02 06:54:32;;;;;;;3.92;1.55;;;15.20;99.90;;;;;;5061050;28;19924;-61
2023/09/02 06:56:58;;;;;;;;;;;15.30;99.90;;;;;;5058084;28;20083;-61
2023/09/02 06:59:25;;;;;;;2.83;1.30;;;15.30;99.90;;;;;;5061893;28;19916;-62
2023/09/02 07:01:52;;;;;;;3.05;1.52;;;15.40;99.90;;;;;;5061644;28;20052;-61
2023/09/02 07:04:18;;;;;;;1.90;1.50;;;15.40;99.90;;;;;;5062254;28;20492;-62
2023/09/02 07:06:43;;;;;;;;;;;15.50;99.90;;;;;;5060033;28;20040;-63
2023/09/02 07:09:09;;;;;;;3.95;1.55;;;15.50;99.90;;;;;;5058213;28;20477;-62
2023/09/02 07:11:35;;;;;;;;;;;15.50;99.90;;;;;;5058422;28;20604;-62
2023/09/02 07:14:00;;;;;;;2.33;1.42;;;15.60;99.90;;;;;;5057902;28;19970;-63
2023/09/02 07:16:26;;;;;;;;;;;15.60;99.90;;;;;;5061017;28;20464;-63
2023/09/02 07:18:52;;;;;;;3.45;1.52;;;15.70;99.90;;;;;;5056474;28;20458;-62
2023/09/02 07:21:22;;;;;;;;;;;15.70;99.90;;;;;;5062062;28;20052;-63
2023/09/02 07:23:49;;;;;;;2.35;1.60;;;15.70;99.90;;;;;;5063092;28;20388;-62
2023/09/02 07:26:14;;;;;;;3.55;1.42;;;15.80;99.90;;;;;;5052873;28;20033;-62
2023/09/02 07:28:42;;;;;;;;;;;15.90;99.90;;;;;;5063696;28;20048;-63
2023/09/02 07:31:11;;;;;;;3.53;1.38;;;15.90;99.90;;;;;;5062997;28;19916;-62
2023/09/02 07:33:37;;;;;;;4.13;1.60;;;16.00;99.90;;;;;;5063338;28;20089;-62
2023/09/02 07:36:12;;;;;;;;;;;16.10;99.90;;;;;;5067073;28;20036;-63
2023/09/02 07:38:39;;;;;;;3.45;1.40;;;16.10;99.90;;;;;;5066219;28;19921;-62
2023/09/02 07:41:05;;;;;;;6.20;1.45;;;16.20;99.90;;;;;;5065920;28;20634;-63
2023/09/02 07:43:30;;;;;;;;;;;16.20;99.90;;;;;;5063440;28;20036;-62
2023/09/02 07:45:56;;;;;;;4.85;1.20;;;16.30;99.90;;;;;;5066345;28;20061;-62
2023/09/02 07:48:22;;;;;;;3.53;1.70;;;16.30;99.90;;;;;;5063212;28;20083;-62
2023/09/02 07:50:48;;;;;;;;;;;16.40;99.90;;;;;;5056065;28;20068;-63
2023/09/02 07:53:14;;;;;;;3.53;2.30;;;16.50;99.90;;;;;;5065484;28;19952;-59
2023/09/02 07:55:40;;;;;;;3.25;1.70;;;16.60;99.90;;;;;;5066550;28;20040;-60
2023/09/02 07:58:06;;;;;;;2.90;1.80;;;16.70;99.90;;;;;;5065688;28;20049;-61
2023/09/02 08:00:35;;;;;;;;;;;16.70;99.90;;;;;;5066104;28;20029;-61
2023/09/02 08:03:00;;;;;;;2.35;1.70;;;16.80;99.90;;;;;;5063457;28;20580;-61
2023/09/02 08:05:26;;;;;;;;;;;16.90;99.90;;;;;;5063848;28;20066;-61
2023/09/02 08:07:52;;;;;;;2.53;1.90;;;17.10;99.90;;;;;;5066003;28;20011;-61
2023/09/02 08:10:17;;;;;;;3.30;2.00;;;17.40;99.90;;;;;;5062831;28;20404;-61
2023/09/02 08:12:43;;;;;;;;;;;17.60;99.90;;;;;;5060072;28;20036;-61
2023/09/02 08:15:10;;;;;;;3.65;1.77;;;17.90;99.90;;;;;;5064114;28;20015;-61
2023/09/02 08:17:41;;;;;;;3.63;1.77;;;18.30;99.90;;;;;;5065828;28;20192;-60
2023/09/02 08:20:08;;;;;;;2.75;2.00;;;18.60;99.90;;;;;;5063863;28;20037;-61
2023/09/02 08:22:35;;;;;;;2.58;1.92;;;18.70;99.90;;;;;;5060988;28;20040;-61
2023/09/02 08:25:00;;;;;;;3.17;1.80;;;18.80;99.90;;;;;;5063575;28;20074;-61
2023/09/02 08:27:26;;;;;;;;;;;18.70;99.90;;;;;;5065113;28;20040;-61
2023/09/02 08:29:52;;;;;;;2.55;1.63;;;18.50;99.90;;;;;;5064858;28;20366;-61
2023/09/02 08:32:18;;;;;;;3.80;2.25;;;18.40;99.90;;;;;;5064036;28;20029;-61
2023/09/02 08:34:43;;;;;;;2.55;1.95;;;18.20;99.90;;;;;;5065357;28;20484;-59
2023/09/02 08:37:09;;;;;;;3.10;2.10;;;18.00;99.90;;;;;;5064784;28;20037;-61
2023/09/02 08:39:34;;;;;;;;;;;17.90;99.90;;;;;;5065603;28;20041;-61
2023/09/02 08:42:00;;;;;;;2.85;2.40;;;17.90;99.90;;;;;;5063448;28;19992;-61
2023/09/02 08:44:34;;;;;;;2.65;1.70;;;17.80;99.90;;;;;;5064529;28;20044;-61
2023/09/02 08:47:02;;;;;;;3.28;2.05;;;17.70;99.90;;;;;;5060317;28;20105;-61
2023/09/02 08:49:29;;;;;;;2.80;1.80;;;17.70;99.90;;;;;;5055531;28;20041;-61
2023/09/02 08:51:55;;;;;;;5.82;2.22;;;17.60;99.90;;;;;;5063252;28;20037;-61
2023/09/02 08:54:22;;;;;;;3.03;2.10;;;17.70;99.90;;;;;;5056137;28;20146;-61
2023/09/02 08:56:49;;;;;;;4.45;2.00;;;17.70;99.90;;;;;;5057231;28;20032;-61
2023/09/02 08:59:15;;;;;;;4.45;1.88;;;17.70;99.90;;;;;;5063918;28;20154;-62
2023/09/02 09:01:41;;;;;;;;;;;17.70;99.90;;;;;;5064624;28;20443;-62
2023/09/02 09:04:07;;;;;;;6.45;1.63;;;17.70;99.90;;;;;;5064933;28;19954;-62
2023/09/02 09:06:36;;;;;;;3.38;1.60;;;17.70;99.90;;;;;;5064512;28;20048;-61
2023/09/02 09:09:02;;;;;;;1.95;1.45;;;17.80;99.90;;;;;;5063854;28;20032;-61
2023/09/02 09:11:32;;;;;;;2.05;1.48;;;17.90;99.90;;;;;;5059162;28;20107;-60
2023/09/02 09:14:01;;;;;;;2.47;1.42;;;17.90;99.90;;;;;;5063926;28;20408;-60
2023/09/02 09:16:31;;;;;;;3.20;1.50;;;18.00;99.90;;;;;;5063540;28;20083;-61
2023/09/02 09:19:01;;;;;;;2.95;1.33;;;18.00;99.90;;;;;;5064070;28;20523;-61
2023/09/02 09:21:27;;;;;;;1.65;1.35;;;18.10;99.90;;;;;;5054639;28;20036;-61
2023/09/02 09:23:52;;;;;;;;;;;18.20;99.90;;;;;;5064185;28;20036;-61
2023/09/02 09:26:19;;;;;;;2.28;1.65;;;18.20;99.90;;;;;;5061156;28;19931;-61
2023/09/02 09:28:58;;;;;;;1.80;1.52;;;18.30;99.90;;;;;;5062013;28;20085;-61
2023/09/02 09:31:26;;;;;;;2.28;1.85;;;18.30;99.90;;;;;;5064346;28;20040;-61
2023/09/02 09:34:00;;;;;;;2.15;1.48;;;18.40;99.90;;;;;;5060083;28;20044;-62
2023/09/02 09:36:28;;;;;;;2.15;1.50;;;18.40;99.90;;;;;;5062085;28;20044;-61
2023/09/02 09:38:56;;;;;;;1.17;1.00;;;18.50;99.90;;;;;;5062859;28;20032;-62
2023/09/02 09:41:26;;;;;;;15.52;4.65;;;18.60;99.90;;;;;;5061505;28;20032;-61
2023/09/02 09:44:11;;;;;;;43.70;13.85;;;18.60;99.90;;;;;;5053922;28;20044;-62
2023/09/02 09:46:43;;;;;;;40.80;15.25;;;18.70;99.90;;;;;;5058856;28;20052;-63
2023/09/02 09:49:29;;;;;;;29.38;10.45;;;18.80;99.90;;;;;;5056383;28;20059;-62
2023/09/02 09:52:01;;;;;;;6.32;2.47;;;18.80;99.90;;;;;;5057000;28;20064;-62
2023/09/02 09:54:40;;;;;;;2.67;1.40;;;18.90;99.90;;;;;;5063083;28;20041;-61
2023/09/02 09:57:09;;;;;;;1.58;1.17;;;18.90;99.90;;;;;;5062532;28;20041;-60
2023/09/02 09:59:35;;;;;;;2.58;0.98;;;19.00;99.90;;;;;;5063439;28;20161;-62
2023/09/02 10:02:05;;;;;;;2.47;0.90;;;19.00;99.90;;;;;;5061211;28;20044;-63
2023/09/02 10:04:31;;;;;;;1.38;1.17;;;19.10;99.90;;;;;;5063985;28;20079;-63
2023/09/02 10:07:02;;;;;;;1.35;1.05;;;19.10;99.90;;;;;;5057393;28;20524;-61
2023/09/02 10:09:44;;;;;;;0.88;0.82;;;19.20;99.90;;;;;;5063386;28;20500;-62
2023/09/02 10:12:11;;;;;;;2.63;1.25;;;19.30;99.90;;;;;;5055464;28;20044;-62
2023/09/02 10:14:43;;;;;;;1.95;1.13;;;19.30;99.90;;;;;;5063124;28;20086;-62
2023/09/02 10:17:09;;;;;;;6.32;1.08;;;19.40;99.90;;;;;;5058117;28;20127;-62
2023/09/02 10:19:35;;;;;;;1.73;1.05;;;19.40;99.90;;;;;;5045284;28;20049;-62
2023/09/02 10:22:04;;;;;;;;;;;19.50;99.90;;;;;;5058070;28;20066;-62
2023/09/02 10:24:34;;;;;;;1.52;0.75;;;19.50;99.90;;;;;;5062987;28;20025;-61
2023/09/02 10:27:04;;;;;;;2.78;1.00;;;19.50;99.90;;;;;;5063811;28;20044;-62
2023/09/02 10:29:33;;;;;;;1.25;1.08;;;19.60;99.90;;;;;;5062808;28;20461;-63
2023/09/02 10:32:09;;;;;;;3.50;1.42;;;19.60;99.90;;;;;;5061614;28;20044;-62
2023/09/02 10:34:51;;;;;;;1.35;1.10;;;19.60;99.90;;;;;;5063266;28;20071;-62
2023/09/02 10:37:21;;;;;;;1.00;0.80;;;19.60;99.90;;;;;;5061282;28;20044;-62
2023/09/02 10:40:07;;;;;;;2.15;1.20;;;19.70;99.90;;;;;;5058757;28;20040;-62
2023/09/02 10:42:35;;;;;;;1.35;1.02;;;19.60;99.90;;;;;;5057634;28;20060;-62
2023/09/02 10:45:01;;;;;;;1.52;0.82;;;19.80;99.90;;;;;;5062128;28;20561;-63
2023/09/02 10:47:26;;;;;;;1.88;1.20;;;19.90;99.90;;;;;;5057759;28;20682;-63
2023/09/02 10:49:53;;;;;;;;;;;20.10;99.90;;;;;;5053552;28;20127;-63
2023/09/02 10:52:19;;;;;;;1.80;1.15;;;20.10;99.90;;;;;;5055013;28;19969;-62
2023/09/02 10:55:02;;;;;;;1.42;1.23;;;20.20;99.90;;;;;;5062794;28;20044;-62
2023/09/02 10:57:43;;;;;;;2.50;1.20;;;20.40;99.90;;;;;;5053090;28;20245;-62
2023/09/02 11:00:17;;;;;;;5.28;0.90;;;20.40;99.90;;;;;;5055672;28;20143;-66
2023/09/02 11:02:44;;;;;;;3.53;1.10;;;20.60;99.90;;;;;;5058365;28;20744;-62
2023/09/02 11:05:11;;;;;;;1.77;0.73;;;20.60;99.90;;;;;;5057067;28;20033;-62
2023/09/02 11:07:39;;;;;;;1.58;0.82;;;20.60;99.90;;;;;;5073594;28;20520;-62
2023/09/02 11:10:06;;;;;;;1.92;0.80;;;20.70;99.90;;;;;;5061620;28;20452;-63
2023/09/02 11:12:33;;;;;;;3.17;0.90;;;20.80;99.90;;;;;;5057378;28;20118;-62
2023/09/02 11:15:08;;;;;;;1.27;1.00;;;21.00;99.90;;;;;;5055914;28;20041;-62
2023/09/02 11:17:41;;;;;;;1.52;0.82;;;21.10;99.90;;;;;;5057365;28;20070;-61
2023/09/02 11:20:09;;;;;;;1.88;0.77;;;21.10;99.90;;;;;;5056664;28;20041;-62
2023/09/02 11:22:59;;;;;;;1.10;0.70;;;21.20;99.90;;;;;;5055947;28;20703;-61
2023/09/02 11:25:37;;;;;;;2.08;0.90;;;21.20;99.90;;;;;;5059182;28;20040;-63
2023/09/02 11:28:05;;;;;;;1.70;0.98;;;21.20;99.90;;;;;;5056113;28;20101;-62
2023/09/02 11:30:36;;;;;;;1.63;0.90;;;21.10;99.90;;;;;;5054883;28;20040;-62
2023/09/02 11:33:02;;;;;;;3.03;1.05;;;20.90;99.90;;;;;;5054815;28;20119;-62
2023/09/02 11:35:33;;;;;;;0.95;0.80;;;20.90;99.90;;;;;;5052498;28;20040;-63
2023/09/02 11:38:00;;;;;;;3.53;1.08;;;20.90;99.90;;;;;;5056897;28;20053;-61
2023/09/02 11:40:26;;;;;;;1.27;0.70;;;20.90;99.90;;;;;;5085246;28;20053;-61
2023/09/02 11:43:00;;;;;;;1.75;1.00;;;20.70;99.90;;;;;;5058222;28;20040;-62
2023/09/02 11:45:34;;;;;;;2.78;1.17;;;20.60;99.90;;;;;;5054010;28;20048;-60
2023/09/02 11:48:02;;;;;;;4.88;0.90;;;20.50;99.90;;;;;;5049755;28;20048;-62
2023/09/02 11:50:28;;;;;;;1.38;0.80;;;20.40;99.90;;;;;;5055443;28;20064;-62
2023/09/02 11:52:55;;;;;;;1.20;1.00;;;20.40;99.90;;;;;;5059892;28;20117;-63
2023/09/02 11:55:21;;;;;;;1.08;0.98;;;20.50;99.90;;;;;;5062544;28;20043;-60
2023/09/02 11:57:47;;;;;;;1.63;1.05;;;20.50;99.90;;;;;;5061761;28;20132;-62
2023/09/02 12:00:18;;;;;;;3.08;1.33;;;20.40;99.90;;;;;;5061017;28;20147;-62
2023/09/02 12:02:45;;;;;;;1.75;1.00;;;20.40;99.90;;;;;;5059274;28;20135;-62
2023/09/02 12:05:15;;;;;;;1.90;1.00;;;20.30;99.90;;;;;;5061744;28;20064;-62
2023/09/02 12:07:43;;;;;;;1.75;1.10;;;20.30;99.90;;;;;;5059341;28;20040;-64
2023/09/02 12:10:11;;;;;;;2.92;1.00;;;20.20;99.90;;;;;;5056163;28;20037;-62
2023/09/02 12:12:42;;;;;;;1.08;0.98;;;20.20;99.90;;;;;;5056685;28;20041;-64
2023/09/02 12:15:17;;;;;;;2.22;1.20;;;20.10;99.90;;;;;;5064862;28;20048;-63
2023/09/02 12:17:44;;;;;;;3.20;0.95;;;20.10;99.90;;;;;;5063694;28;20044;-66
2023/09/02 12:20:12;;;;;;;1.80;1.40;;;20.10;99.90;;;;;;5062522;28;20045;-62
2023/09/02 12:22:38;;;;;;;1.40;0.98;;;20.20;99.90;;;;;;5062975;28;20078;-62
2023/09/02 12:25:17;;;;;;;2.45;1.13;;;20.10;99.90;;;;;;5065512;28;20465;-61
2023/09/02 12:27:43;;;;;;;3.03;1.33;;;20.00;99.90;;;;;;5063005;28;20105;-61
2023/09/02 12:30:11;;;;;;;1.60;1.00;;;19.90;99.90;;;;;;5065509;28;20040;-60
2023/09/02 12:32:36;;;;;;;1.77;1.00;;;19.90;99.90;;;;;;5064518;28;20595;-60
2023/09/02 12:35:09;;;;;;;2.35;1.58;;;19.90;99.90;;;;;;5063848;28;20032;-61
2023/09/02 12:37:35;;;;;;;1.27;1.15;;;19.90;99.90;;;;;;5053655;28;20037;-61
2023/09/02 12:40:11;;;;;;;1.52;1.20;;;19.90;99.90;;;;;;5065986;28;20033;-61
2023/09/02 12:42:36;;;;;;;1.63;0.90;;;19.90;99.90;;;;;;5064775;28;20063;-60
2023/09/02 12:45:04;;;;;;;1.70;1.40;;;19.80;99.90;;;;;;5061691;28;20134;-63
2023/09/02 12:47:30;;;;;;;2.92;1.00;;;19.70;99.90;;;;;;5061866;28;20618;-62
2023/09/02 12:49:56;;;;;;;;;;;19.70;99.90;;;;;;5056964;28;20108;-62
2023/09/02 12:52:24;;;;;;;3.37;1.00;;;19.70;99.90;;;;;;5065161;28;20011;-67
2023/09/02 12:54:59;;;;;;;1.48;1.00;;;19.60;99.90;;;;;;5054291;28;20536;-62
2023/09/02 12:57:29;;;;;;;1.85;1.00;;;19.60;99.90;;;;;;5065068;28;20135;-63
2023/09/02 12:59:55;;;;;;;4.38;1.00;;;19.60;99.90;;;;;;5064811;28;20052;-61
2023/09/02 13:02:23;;;;;;;3.40;1.05;;;19.60;99.90;;;;;;5064297;28;20504;-61
2023/09/02 13:04:49;;;;;;;3.00;0.98;;;19.70;99.90;;;;;;5063173;28;20076;-61
2023/09/02 13:07:19;;;;;;;;;;;19.80;99.90;;;;;;5060615;28;20068;-61